< Typhoon 200123 2001 Season Typhoon 200125 >
Typhoon 200124 (KAJIKI)
General InformationTrack Information on Google MapsDetailed Wind InformationList of All Images || Disaster Info.ResourceGoogle EarthGE AnimationAtom FeedGeoJSON
Detalied Best Track (Time Zone = UTC)
Year Month Day Hour Lat. Long. Pressure (hPa) Wind (kt) Class Image Chart
2001 12 4 00 9.7 130.2 1004 0 2 Image Chart
2001 12 4 06 10.1 129.2 1002 0 2 Image Chart
2001 12 4 12 10.3 127.9 1004 0 2 Image Chart
2001 12 4 18 10.3 126.9 1002 0 2 Image Chart
2001 12 5 00 10.4 126.3 1000 35 3 Image Chart
2001 12 5 06 10.8 125.3 998 35 3 Image Chart
2001 12 5 12 10.9 124.0 1000 35 3 Image Chart
2001 12 5 18 11.2 122.9 998 35 3 Image Chart
2001 12 6 00 11.3 122.2 998 35 3 Image Chart
2001 12 6 06 11.7 121.4 1000 0 2 Image Chart
2001 12 6 12 11.8 120.7 1000 0 2 Image Chart
2001 12 6 18 12.0 119.4 998 35 3 Image Chart
2001 12 7 00 12.3 117.8 998 35 3 Image Chart
2001 12 7 06 12.4 116.5 996 35 3 Image Chart
2001 12 7 12 13.2 115.5 996 35 3 Image Chart
2001 12 7 18 13.2 114.6 996 35 3 Image Chart
2001 12 8 00 12.8 114.0 996 35 3 Image Chart
2001 12 8 06 12.9 113.1 1000 0 2 Image Chart
2001 12 8 12 12.7 112.8 1002 0 2 Image Chart
2001 12 8 18 12.7 112.5 1002 0 2 Image Chart
2001 12 9 00 12.6 111.7 1004 0 2 Image Chart
2001 12 9 06 12.8 111.3 1004 0 2 Image Chart
2001 12 9 12 12.9 111.0 1006 0 2 Image Chart
Japan Meteorological Agency Best Track Data | Correction Date : 2002-01-24
< Typhoon 200123 2001 Season Typhoon 200125 >

Help